sensor_id;sensor_type;location;lat;lon;timestamp;pressure;altitude;pressure_sealevel;temperature;humidity
68586;BME280;72506;-25.924;28.194;2023-08-31T00:00:41;85612.42;;;14.26;34.68
68586;BME280;72506;-25.924;28.194;2023-08-31T00:03:06;85609.82;;;14.33;35.00
68586;BME280;72506;-25.924;28.194;2023-08-31T00:05:32;85606.09;;;14.27;34.99
68586;BME280;72506;-25.924;28.194;2023-08-31T00:07:57;85605.05;;;14.59;35.73
68586;BME280;72506;-25.924;28.194;2023-08-31T00:10:23;85604.22;;;14.07;36.34
68586;BME280;72506;-25.924;28.194;2023-08-31T00:12:48;85602.40;;;14.33;36.29
68586;BME280;72506;-25.924;28.194;2023-08-31T00:15:13;85600.96;;;13.85;36.50
68586;BME280;72506;-25.924;28.194;2023-08-31T00:17:38;85597.56;;;13.50;36.78
68586;BME280;72506;-25.924;28.194;2023-08-31T00:20:04;85592.81;;;14.42;35.63
68586;BME280;72506;-25.924;28.194;2023-08-31T00:22:29;85591.78;;;13.64;35.94
68586;BME280;72506;-25.924;28.194;2023-08-31T00:24:54;85591.75;;;14.47;35.70
68586;BME280;72506;-25.924;28.194;2023-08-31T00:27:19;85599.11;;;13.25;37.36
68586;BME280;72506;-25.924;28.194;2023-08-31T00:29:44;85599.14;;;13.58;37.68
68586;BME280;72506;-25.924;28.194;2023-08-31T00:32:09;85590.85;;;13.83;37.19
68586;BME280;72506;-25.924;28.194;2023-08-31T00:34:34;85587.58;;;13.99;36.61
68586;BME280;72506;-25.924;28.194;2023-08-31T00:36:59;85592.26;;;14.04;37.09
68586;BME280;72506;-25.924;28.194;2023-08-31T00:39:25;85590.52;;;14.08;36.47
68586;BME280;72506;-25.924;28.194;2023-08-31T00:41:53;85592.67;;;13.71;36.95
68586;BME280;72506;-25.924;28.194;2023-08-31T00:44:16;85589.58;;;13.30;37.14
68586;BME280;72506;-25.924;28.194;2023-08-31T00:46:42;85590.94;;;13.93;37.32
68586;BME280;72506;-25.924;28.194;2023-08-31T00:49:07;85587.51;;;14.23;36.62
68586;BME280;72506;-25.924;28.194;2023-08-31T00:51:32;85586.26;;;13.97;37.07
68586;BME280;72506;-25.924;28.194;2023-08-31T00:53:57;85577.23;;;14.34;36.02
68586;BME280;72506;-25.924;28.194;2023-08-31T00:56:23;85579.71;;;13.94;36.12
68586;BME280;72506;-25.924;28.194;2023-08-31T00:58:48;85579.17;;;13.81;36.66
68586;BME280;72506;-25.924;28.194;2023-08-31T01:01:20;85582.13;;;13.74;37.15
68586;BME280;72506;-25.924;28.194;2023-08-31T01:03:46;85580.73;;;14.01;36.67
68586;BME280;72506;-25.924;28.194;2023-08-31T01:06:12;85580.94;;;13.46;36.84
68586;BME280;72506;-25.924;28.194;2023-08-31T01:08:37;85576.30;;;13.86;36.91
68586;BME280;72506;-25.924;28.194;2023-08-31T01:11:01;85570.11;;;14.21;35.67
68586;BME280;72506;-25.924;28.194;2023-08-31T01:13:23;85567.47;;;13.67;36.81
68586;BME280;72506;-25.924;28.194;2023-08-31T01:15:49;85568.10;;;13.63;36.66
68586;BME280;72506;-25.924;28.194;2023-08-31T01:18:13;85569.98;;;13.19;37.33
68586;BME280;72506;-25.924;28.194;2023-08-31T01:20:40;85563.30;;;13.32;37.32
68586;BME280;72506;-25.924;28.194;2023-08-31T01:23:07;85559.14;;;13.99;35.93
68586;BME280;72506;-25.924;28.194;2023-08-31T01:25:27;85556.97;;;13.95;35.79
68586;BME280;72506;-25.924;28.194;2023-08-31T01:27:52;85555.77;;;13.61;36.05
68586;BME280;72506;-25.924;28.194;2023-08-31T01:30:17;85556.80;;;13.81;36.47
68586;BME280;72506;-25.924;28.194;2023-08-31T01:32:45;85551.51;;;13.59;36.34
68586;BME280;72506;-25.924;28.194;2023-08-31T01:35:09;85549.77;;;13.80;36.14
68586;BME280;72506;-25.924;28.194;2023-08-31T01:37:38;85550.38;;;13.92;35.75
68586;BME280;72506;-25.924;28.194;2023-08-31T01:40:05;85544.30;;;13.95;35.20
68586;BME280;72506;-25.924;28.194;2023-08-31T01:42:25;85550.31;;;13.39;36.36
68586;BME280;72506;-25.924;28.194;2023-08-31T01:44:50;85551.95;;;13.14;36.87
68586;BME280;72506;-25.924;28.194;2023-08-31T01:47:16;85545.05;;;13.40;36.24
68586;BME280;72506;-25.924;28.194;2023-08-31T01:49:41;85550.96;;;12.43;37.68
68586;BME280;72506;-25.924;28.194;2023-08-31T01:52:07;85550.31;;;12.93;37.20
68586;BME280;72506;-25.924;28.194;2023-08-31T01:54:32;85543.92;;;12.59;37.78
68586;BME280;72506;-25.924;28.194;2023-08-31T01:56:57;85546.11;;;12.99;37.55
68586;BME280;72506;-25.924;28.194;2023-08-31T01:59:23;85545.53;;;13.04;37.46
68586;BME280;72506;-25.924;28.194;2023-08-31T02:01:48;85548.35;;;12.90;37.66
68586;BME280;72506;-25.924;28.194;2023-08-31T02:04:14;85547.47;;;12.58;38.14
68586;BME280;72506;-25.924;28.194;2023-08-31T02:06:40;85548.67;;;12.75;37.91
68586;BME280;72506;-25.924;28.194;2023-08-31T02:09:06;85547.17;;;12.90;37.73
68586;BME280;72506;-25.924;28.194;2023-08-31T02:11:31;85544.15;;;12.39;38.44
68586;BME280;72506;-25.924;28.194;2023-08-31T02:13:56;85546.53;;;12.93;37.80
68586;BME280;72506;-25.924;28.194;2023-08-31T02:16:21;85541.63;;;13.42;37.22
68586;BME280;72506;-25.924;28.194;2023-08-31T02:18:47;85541.50;;;13.18;37.62
68586;BME280;72506;-25.924;28.194;2023-08-31T02:21:13;85546.63;;;12.83;38.25
68586;BME280;72506;-25.924;28.194;2023-08-31T02:23:38;85536.68;;;13.49;37.34
68586;BME280;72506;-25.924;28.194;2023-08-31T02:26:04;85539.10;;;13.22;38.14
68586;BME280;72506;-25.924;28.194;2023-08-31T02:28:30;85536.96;;;13.25;37.81
68586;BME280;72506;-25.924;28.194;2023-08-31T02:31:00;85537.08;;;13.28;37.94
68586;BME280;72506;-25.924;28.194;2023-08-31T02:33:20;85533.58;;;13.44;37.02
68586;BME280;72506;-25.924;28.194;2023-08-31T02:35:45;85536.10;;;13.54;37.63
68586;BME280;72506;-25.924;28.194;2023-08-31T02:38:10;85537.63;;;12.99;38.31
68586;BME280;72506;-25.924;28.194;2023-08-31T02:40:35;85533.95;;;12.37;37.57
68586;BME280;72506;-25.924;28.194;2023-08-31T02:43:01;85536.48;;;12.31;38.28
68586;BME280;72506;-25.924;28.194;2023-08-31T02:45:26;85535.56;;;12.15;39.24
68586;BME280;72506;-25.924;28.194;2023-08-31T02:47:51;85533.29;;;12.37;38.92
68586;BME280;72506;-25.924;28.194;2023-08-31T02:50:17;85535.33;;;12.01;39.43
68586;BME280;72506;-25.924;28.194;2023-08-31T02:52:42;85533.16;;;12.46;38.80
68586;BME280;72506;-25.924;28.194;2023-08-31T02:55:09;85536.33;;;11.90;40.41
68586;BME280;72506;-25.924;28.194;2023-08-31T02:57:34;85534.60;;;11.72;40.35
68586;BME280;72506;-25.924;28.194;2023-08-31T03:00:00;85532.46;;;11.78;40.65
68586;BME280;72506;-25.924;28.194;2023-08-31T03:02:25;85527.79;;;12.03;40.24
68586;BME280;72506;-25.924;28.194;2023-08-31T03:04:51;85526.47;;;12.58;39.84
68586;BME280;72506;-25.924;28.194;2023-08-31T03:07:16;85526.64;;;12.58;39.37
68586;BME280;72506;-25.924;28.194;2023-08-31T03:09:41;85527.69;;;12.17;40.09
68586;BME280;72506;-25.924;28.194;2023-08-31T03:12:07;85527.55;;;12.71;40.02
68586;BME280;72506;-25.924;28.194;2023-08-31T03:14:33;85524.71;;;12.23;39.72
68586;BME280;72506;-25.924;28.194;2023-08-31T03:16:58;85523.23;;;12.31;39.58
68586;BME280;72506;-25.924;28.194;2023-08-31T03:19:24;85522.72;;;11.97;40.18
68586;BME280;72506;-25.924;28.194;2023-08-31T03:21:50;85524.32;;;11.96;40.68
68586;BME280;72506;-25.924;28.194;2023-08-31T03:24:15;85523.44;;;12.04;40.39
68586;BME280;72506;-25.924;28.194;2023-08-31T03:26:40;85522.44;;;12.02;41.01
68586;BME280;72506;-25.924;28.194;2023-08-31T03:29:05;85527.83;;;11.30;41.84
68586;BME280;72506;-25.924;28.194;2023-08-31T03:31:31;85525.70;;;12.27;41.31
68586;BME280;72506;-25.924;28.194;2023-08-31T03:33:56;85525.87;;;12.28;41.28
68586;BME280;72506;-25.924;28.194;2023-08-31T03:36:22;85528.92;;;12.28;41.19
68586;BME280;72506;-25.924;28.194;2023-08-31T03:38:47;85527.29;;;12.37;41.29
68586;BME280;72506;-25.924;28.194;2023-08-31T03:41:12;85529.88;;;12.13;41.68
68586;BME280;72506;-25.924;28.194;2023-08-31T03:43:38;85524.23;;;12.15;40.75
68586;BME280;72506;-25.924;28.194;2023-08-31T03:46:04;85528.80;;;11.58;41.23
68586;BME280;72506;-25.924;28.194;2023-08-31T03:48:29;85534.03;;;12.00;41.60
68586;BME280;72506;-25.924;28.194;2023-08-31T03:50:55;85532.70;;;12.07;41.91
68586;BME280;72506;-25.924;28.194;2023-08-31T03:53:20;85532.57;;;12.44;41.00
68586;BME280;72506;-25.924;28.194;2023-08-31T03:55:46;85535.09;;;12.42;40.92
68586;BME280;72506;-25.924;28.194;2023-08-31T03:58:11;85534.27;;;12.46;39.89
68586;BME280;72506;-25.924;28.194;2023-08-31T04:00:38;85538.82;;;12.72;39.77
68586;BME280;72506;-25.924;28.194;2023-08-31T04:03:02;85541.92;;;12.87;39.64
68586;BME280;72506;-25.924;28.194;2023-08-31T04:05:28;85541.57;;;12.42;39.33
68586;BME280;72506;-25.924;28.194;2023-08-31T04:07:53;85543.33;;;12.86;39.39
68586;BME280;72506;-25.924;28.194;2023-08-31T04:10:19;85544.53;;;12.85;39.67
68586;BME280;72506;-25.924;28.194;2023-08-31T04:12:44;85548.59;;;11.88;39.91
68586;BME280;72506;-25.924;28.194;2023-08-31T04:15:10;85547.19;;;11.74;39.81
68586;BME280;72506;-25.924;28.194;2023-08-31T04:17:35;85554.63;;;11.51;40.82
68586;BME280;72506;-25.924;28.194;2023-08-31T04:20:01;85562.69;;;11.64;41.64
68586;BME280;72506;-25.924;28.194;2023-08-31T04:22:27;85565.48;;;11.87;42.50
68586;BME280;72506;-25.924;28.194;2023-08-31T04:24:53;85569.81;;;11.82;42.79
68586;BME280;72506;-25.924;28.194;2023-08-31T04:27:17;85566.67;;;12.14;41.34
68586;BME280;72506;-25.924;28.194;2023-08-31T04:29:42;85569.52;;;12.22;41.45
68586;BME280;72506;-25.924;28.194;2023-08-31T04:32:07;85567.95;;;12.19;41.56
68586;BME280;72506;-25.924;28.194;2023-08-31T04:34:33;85568.59;;;12.62;41.04
68586;BME280;72506;-25.924;28.194;2023-08-31T04:36:58;85565.53;;;13.08;40.25
68586;BME280;72506;-25.924;28.194;2023-08-31T04:39:24;85568.42;;;12.26;40.99
68586;BME280;72506;-25.924;28.194;2023-08-31T04:41:50;85569.57;;;12.54;40.98
68586;BME280;72506;-25.924;28.194;2023-08-31T04:44:16;85571.62;;;12.47;41.20
68586;BME280;72506;-25.924;28.194;2023-08-31T04:46:41;85574.29;;;12.81;41.87
68586;BME280;72506;-25.924;28.194;2023-08-31T04:49:08;85569.66;;;13.06;40.58
68586;BME280;72506;-25.924;28.194;2023-08-31T04:51:34;85574.67;;;13.27;40.00
68586;BME280;72506;-25.924;28.194;2023-08-31T04:53:58;85577.92;;;12.65;40.51
68586;BME280;72506;-25.924;28.194;2023-08-31T04:56:23;85585.31;;;12.90;41.20
68586;BME280;72506;-25.924;28.194;2023-08-31T04:58:48;85581.98;;;12.68;41.09
68586;BME280;72506;-25.924;28.194;2023-08-31T05:01:14;85580.56;;;13.44;39.45
68586;BME280;72506;-25.924;28.194;2023-08-31T05:03:40;85581.59;;;13.16;39.36
68586;BME280;72506;-25.924;28.194;2023-08-31T05:06:05;85587.34;;;13.35;40.26
68586;BME280;72506;-25.924;28.194;2023-08-31T05:08:30;85589.35;;;13.46;39.64
68586;BME280;72506;-25.924;28.194;2023-08-31T05:10:56;85588.33;;;13.08;38.73
68586;BME280;72506;-25.924;28.194;2023-08-31T05:13:22;85592.52;;;13.66;38.62
68586;BME280;72506;-25.924;28.194;2023-08-31T05:15:47;85594.54;;;13.71;38.43
68586;BME280;72506;-25.924;28.194;2023-08-31T05:18:12;85596.96;;;13.91;39.12
68586;BME280;72506;-25.924;28.194;2023-08-31T05:20:38;85605.48;;;13.86;40.05
68586;BME280;72506;-25.924;28.194;2023-08-31T05:23:04;85605.77;;;14.38;38.93
68586;BME280;72506;-25.924;28.194;2023-08-31T05:25:29;85602.27;;;14.69;37.91
68586;BME280;72506;-25.924;28.194;2023-08-31T05:27:54;85595.78;;;15.16;36.61
68586;BME280;72506;-25.924;28.194;2023-08-31T05:30:20;85604.04;;;15.51;37.88
68586;BME280;72506;-25.924;28.194;2023-08-31T05:32:45;85608.83;;;15.30;39.13
68586;BME280;72506;-25.924;28.194;2023-08-31T05:35:10;85612.23;;;15.84;38.36
68586;BME280;72506;-25.924;28.194;2023-08-31T05:37:36;85611.80;;;15.98;38.08
68586;BME280;72506;-25.924;28.194;2023-08-31T05:40:01;85616.87;;;16.10;38.24
68586;BME280;72506;-25.924;28.194;2023-08-31T05:42:26;85622.57;;;15.53;39.97
68586;BME280;72506;-25.924;28.194;2023-08-31T05:44:51;85629.64;;;14.29;42.54
68586;BME280;72506;-25.924;28.194;2023-08-31T05:47:16;85624.23;;;15.31;39.73
68586;BME280;72506;-25.924;28.194;2023-08-31T05:49:42;85636.02;;;14.41;42.82
68586;BME280;72506;-25.924;28.194;2023-08-31T05:52:07;85629.38;;;14.77;40.70
68586;BME280;72506;-25.924;28.194;2023-08-31T05:54:33;85630.02;;;15.05;39.88
68586;BME280;72506;-25.924;28.194;2023-08-31T05:56:58;85619.49;;;16.31;37.28
68586;BME280;72506;-25.924;28.194;2023-08-31T05:59:23;85632.66;;;15.33;40.12
68586;BME280;72506;-25.924;28.194;2023-08-31T06:01:49;85626.35;;;17.00;37.61
68586;BME280;72506;-25.924;28.194;2023-08-31T06:04:14;85615.99;;;16.87;34.94
68586;BME280;72506;-25.924;28.194;2023-08-31T06:06:39;85617.02;;;16.99;34.16
68586;BME280;72506;-25.924;28.194;2023-08-31T06:09:05;85615.66;;;18.19;33.30
68586;BME280;72506;-25.924;28.194;2023-08-31T06:11:30;85624.82;;;17.39;34.39
68586;BME280;72506;-25.924;28.194;2023-08-31T06:13:55;85623.40;;;17.80;33.48
68586;BME280;72506;-25.924;28.194;2023-08-31T06:16:20;85624.53;;;18.43;33.03
68586;BME280;72506;-25.924;28.194;2023-08-31T06:18:45;85626.04;;;18.60;32.51
68586;BME280;72506;-25.924;28.194;2023-08-31T06:21:11;85623.93;;;18.11;32.50
68586;BME280;72506;-25.924;28.194;2023-08-31T06:23:36;85625.68;;;18.83;32.21
68586;BME280;72506;-25.924;28.194;2023-08-31T06:26:02;85623.72;;;19.83;31.47
68586;BME280;72506;-25.924;28.194;2023-08-31T06:28:27;85619.95;;;19.73;31.01
68586;BME280;72506;-25.924;28.194;2023-08-31T06:30:52;85619.26;;;20.18;30.21
68586;BME280;72506;-25.924;28.194;2023-08-31T06:33:17;85623.03;;;19.74;31.81
68586;BME280;72506;-25.924;28.194;2023-08-31T06:35:43;85625.51;;;19.75;32.10
68586;BME280;72506;-25.924;28.194;2023-08-31T06:38:08;85615.34;;;19.10;30.76
68586;BME280;72506;-25.924;28.194;2023-08-31T06:40:33;85611.55;;;20.53;29.15
68586;BME280;72506;-25.924;28.194;2023-08-31T06:42:59;85617.58;;;19.07;32.09
68586;BME280;72506;-25.924;28.194;2023-08-31T06:45:25;85616.46;;;20.22;31.01
68586;BME280;72506;-25.924;28.194;2023-08-31T06:47:50;85611.00;;;19.58;30.31
68586;BME280;72506;-25.924;28.194;2023-08-31T06:50:16;85614.13;;;20.56;30.84
68586;BME280;72506;-25.924;28.194;2023-08-31T06:52:41;85612.09;;;20.37;30.80
68586;BME280;72506;-25.924;28.194;2023-08-31T06:55:07;85602.09;;;20.87;30.06
68586;BME280;72506;-25.924;28.194;2023-08-31T06:57:33;85600.19;;;21.94;29.83
68586;BME280;72506;-25.924;28.194;2023-08-31T06:59:59;85601.35;;;20.84;30.23
68586;BME280;72506;-25.924;28.194;2023-08-31T07:02:27;85599.18;;;21.29;29.65
68586;BME280;72506;-25.924;28.194;2023-08-31T07:04:50;85594.24;;;22.89;28.57
68586;BME280;72506;-25.924;28.194;2023-08-31T07:07:16;85596.75;;;22.65;29.15
68586;BME280;72506;-25.924;28.194;2023-08-31T07:09:43;85591.83;;;22.16;28.31
68586;BME280;72506;-25.924;28.194;2023-08-31T07:12:08;85594.99;;;22.41;28.50
68586;BME280;72506;-25.924;28.194;2023-08-31T07:14:33;85596.52;;;23.27;27.97
68586;BME280;72506;-25.924;28.194;2023-08-31T07:16:59;85593.63;;;23.01;27.26
68586;BME280;72506;-25.924;28.194;2023-08-31T07:19:25;85595.23;;;24.26;27.17
68586;BME280;72506;-25.924;28.194;2023-08-31T07:21:50;85588.67;;;23.06;26.75
68586;BME280;72506;-25.924;28.194;2023-08-31T07:24:16;85589.90;;;23.33;27.45
68586;BME280;72506;-25.924;28.194;2023-08-31T07:26:41;85593.06;;;24.28;26.63
68586;BME280;72506;-25.924;28.194;2023-08-31T07:29:07;85589.65;;;24.78;26.11
68586;BME280;72506;-25.924;28.194;2023-08-31T07:31:33;85589.55;;;23.71;26.91
68586;BME280;72506;-25.924;28.194;2023-08-31T07:33:58;85588.73;;;25.27;25.89
68586;BME280;72506;-25.924;28.194;2023-08-31T07:36:24;85587.53;;;24.31;26.21
68586;BME280;72506;-25.924;28.194;2023-08-31T07:38:50;85587.00;;;24.95;26.15
68586;BME280;72506;-25.924;28.194;2023-08-31T07:41:15;85589.58;;;25.81;24.84
68586;BME280;72506;-25.924;28.194;2023-08-31T07:43:41;85580.78;;;25.77;24.70
68586;BME280;72506;-25.924;28.194;2023-08-31T07:46:07;85594.74;;;24.21;26.87
68586;BME280;72506;-25.924;28.194;2023-08-31T07:48:32;85593.88;;;24.42;26.46
68586;BME280;72506;-25.924;28.194;2023-08-31T07:50:58;85589.41;;;25.88;24.97
68586;BME280;72506;-25.924;28.194;2023-08-31T07:53:24;85588.73;;;26.28;24.48
68586;BME280;72506;-25.924;28.194;2023-08-31T07:55:53;85581.37;;;27.21;23.50
68586;BME280;72506;-25.924;28.194;2023-08-31T07:58:15;85591.67;;;27.45;24.26
68586;BME280;72506;-25.924;28.194;2023-08-31T08:00:41;85583.87;;;27.09;23.31
68586;BME280;72506;-25.924;28.194;2023-08-31T08:03:07;85585.26;;;26.95;23.39
68586;BME280;72506;-25.924;28.194;2023-08-31T08:05:33;85582.63;;;27.96;22.32
68586;BME280;72506;-25.924;28.194;2023-08-31T08:07:58;85585.25;;;26.96;24.13
68586;BME280;72506;-25.924;28.194;2023-08-31T08:10:24;85579.04;;;26.69;23.45
68586;BME280;72506;-25.924;28.194;2023-08-31T08:12:50;85572.71;;;26.92;22.31
68586;BME280;72506;-25.924;28.194;2023-08-31T08:15:16;85571.57;;;28.33;22.18
68586;BME280;72506;-25.924;28.194;2023-08-31T08:17:41;85565.29;;;28.44;22.38
68586;BME280;72506;-25.924;28.194;2023-08-31T08:20:08;85562.25;;;28.91;21.73
68586;BME280;72506;-25.924;28.194;2023-08-31T08:22:33;85557.93;;;27.66;21.65
68586;BME280;72506;-25.924;28.194;2023-08-31T08:24:59;85554.84;;;29.03;20.97
68586;BME280;72506;-25.924;28.194;2023-08-31T08:27:25;85549.51;;;27.98;21.90
68586;BME280;72506;-25.924;28.194;2023-08-31T08:29:50;85547.39;;;28.60;20.98
68586;BME280;72506;-25.924;28.194;2023-08-31T08:32:16;85544.79;;;28.29;21.56
68586;BME280;72506;-25.924;28.194;2023-08-31T08:34:41;85544.48;;;28.90;21.01
68586;BME280;72506;-25.924;28.194;2023-08-31T08:37:07;85547.63;;;28.33;22.55
68586;BME280;72506;-25.924;28.194;2023-08-31T08:39:33;85536.63;;;27.96;21.45
68586;BME280;72506;-25.924;28.194;2023-08-31T08:41:59;85531.49;;;27.74;21.95
68586;BME280;72506;-25.924;28.194;2023-08-31T08:44:25;85527.38;;;27.07;21.76
68586;BME280;72506;-25.924;28.194;2023-08-31T08:46:51;85526.13;;;28.10;21.75
68586;BME280;72506;-25.924;28.194;2023-08-31T08:49:16;85523.82;;;28.47;21.34
68586;BME280;72506;-25.924;28.194;2023-08-31T08:51:42;85518.81;;;29.04;20.54
68586;BME280;72506;-25.924;28.194;2023-08-31T08:54:07;85518.11;;;28.76;20.88
68586;BME280;72506;-25.924;28.194;2023-08-31T08:56:33;85511.92;;;29.06;20.76
68586;BME280;72506;-25.924;28.194;2023-08-31T08:58:58;85515.38;;;27.40;22.78
68586;BME280;72506;-25.924;28.194;2023-08-31T09:01:25;85504.45;;;28.06;21.07
68586;BME280;72506;-25.924;28.194;2023-08-31T09:03:51;85503.25;;;28.07;21.42
68586;BME280;72506;-25.924;28.194;2023-08-31T09:06:15;85491.99;;;26.99;21.69
68586;BME280;72506;-25.924;28.194;2023-08-31T09:08:42;85487.74;;;27.45;20.40
68586;BME280;72506;-25.924;28.194;2023-08-31T09:11:07;85494.01;;;27.51;22.55
68586;BME280;72506;-25.924;28.194;2023-08-31T09:13:33;85484.64;;;27.02;21.44
68586;BME280;72506;-25.924;28.194;2023-08-31T09:16:00;85479.25;;;25.73;22.08
68586;BME280;72506;-25.924;28.194;2023-08-31T09:18:26;85484.22;;;25.05;23.96
68586;BME280;72506;-25.924;28.194;2023-08-31T09:20:50;85484.15;;;24.71;26.07
68586;BME280;72506;-25.924;28.194;2023-08-31T09:23:16;85472.85;;;26.32;23.48
68586;BME280;72506;-25.924;28.194;2023-08-31T09:25:46;85461.40;;;27.02;21.56
68586;BME280;72506;-25.924;28.194;2023-08-31T09:28:07;85458.28;;;27.17;22.25
68586;BME280;72506;-25.924;28.194;2023-08-31T09:30:36;85452.41;;;26.64;22.04
68586;BME280;72506;-25.924;28.194;2023-08-31T09:32:58;85440.44;;;26.94;21.10
68586;BME280;72506;-25.924;28.194;2023-08-31T09:35:24;85438.91;;;27.15;21.55
68586;BME280;72506;-25.924;28.194;2023-08-31T09:37:56;85438.80;;;26.54;22.36
68586;BME280;72506;-25.924;28.194;2023-08-31T09:40:16;85433.08;;;25.98;21.98
68586;BME280;72506;-25.924;28.194;2023-08-31T09:42:41;85430.42;;;24.61;23.26
68586;BME280;72506;-25.924;28.194;2023-08-31T09:45:08;85422.14;;;24.73;21.73
68586;BME280;72506;-25.924;28.194;2023-08-31T09:47:33;85408.95;;;25.74;20.30
68586;BME280;72506;-25.924;28.194;2023-08-31T09:49:59;85406.08;;;24.32;22.57
68586;BME280;72506;-25.924;28.194;2023-08-31T09:52:25;85406.56;;;25.67;23.04
68586;BME280;72506;-25.924;28.194;2023-08-31T09:54:51;85404.24;;;26.24;22.74
68586;BME280;72506;-25.924;28.194;2023-08-31T09:57:18;85389.91;;;27.12;20.42
68586;BME280;72506;-25.924;28.194;2023-08-31T09:59:42;85387.08;;;26.78;20.29
68586;BME280;72506;-25.924;28.194;2023-08-31T10:02:07;85386.36;;;27.10;20.56
68586;BME280;72506;-25.924;28.194;2023-08-31T10:04:34;85379.19;;;26.58;20.18
68586;BME280;72506;-25.924;28.194;2023-08-31T10:06:58;85374.38;;;26.66;20.23
68586;BME280;72506;-25.924;28.194;2023-08-31T10:09:23;85378.54;;;27.03;21.08
68586;BME280;72506;-25.924;28.194;2023-08-31T10:11:49;85375.24;;;25.75;21.36
68586;BME280;72506;-25.924;28.194;2023-08-31T10:14:16;85373.35;;;26.03;21.42
68586;BME280;72506;-25.924;28.194;2023-08-31T10:16:41;85359.35;;;26.25;20.37
68586;BME280;72506;-25.924;28.194;2023-08-31T10:19:06;85349.78;;;26.42;19.01
68586;BME280;72506;-25.924;28.194;2023-08-31T10:21:32;85351.09;;;26.68;20.19
68586;BME280;72506;-25.924;28.194;2023-08-31T10:23:58;85363.36;;;26.21;21.63
68586;BME280;72506;-25.924;28.194;2023-08-31T10:26:26;85347.39;;;26.44;20.38
68586;BME280;72506;-25.924;28.194;2023-08-31T10:28:49;85345.33;;;26.14;19.93
68586;BME280;72506;-25.924;28.194;2023-08-31T10:31:17;85339.53;;;25.75;20.69
68586;BME280;72506;-25.924;28.194;2023-08-31T10:33:41;85338.95;;;26.39;20.62
68586;BME280;72506;-25.924;28.194;2023-08-31T10:36:11;85336.48;;;26.31;21.48
68586;BME280;72506;-25.924;28.194;2023-08-31T10:38:34;85333.77;;;23.79;21.75
68586;BME280;72506;-25.924;28.194;2023-08-31T10:41:17;85336.83;;;25.00;23.00
68586;BME280;72506;-25.924;28.194;2023-08-31T10:43:25;85339.33;;;25.54;24.13
68586;BME280;72506;-25.924;28.194;2023-08-31T10:45:51;85339.26;;;25.95;23.48
68586;BME280;72506;-25.924;28.194;2023-08-31T10:48:18;85331.52;;;25.95;23.28
68586;BME280;72506;-25.924;28.194;2023-08-31T10:50:42;85315.05;;;25.29;21.74
68586;BME280;72506;-25.924;28.194;2023-08-31T10:53:09;85308.03;;;25.41;21.01
68586;BME280;72506;-25.924;28.194;2023-08-31T10:55:33;85302.41;;;25.19;20.82
68586;BME280;72506;-25.924;28.194;2023-08-31T10:57:59;85292.77;;;24.92;19.33
68586;BME280;72506;-25.924;28.194;2023-08-31T11:02:50;85283.29;;;25.66;19.70
68586;BME280;72506;-25.924;28.194;2023-08-31T11:05:16;85282.83;;;25.47;19.99
68586;BME280;72506;-25.924;28.194;2023-08-31T11:07:42;85277.95;;;26.23;20.02
68586;BME280;72506;-25.924;28.194;2023-08-31T11:10:11;85276.89;;;25.89;21.01
68586;BME280;72506;-25.924;28.194;2023-08-31T11:12:33;85272.95;;;23.55;21.42
68586;BME280;72506;-25.924;28.194;2023-08-31T11:14:59;85262.17;;;25.01;19.61
68586;BME280;72506;-25.924;28.194;2023-08-31T11:17:25;85250.19;;;23.98;18.64
68586;BME280;72506;-25.924;28.194;2023-08-31T11:19:50;85245.83;;;24.84;18.38
68586;BME280;72506;-25.924;28.194;2023-08-31T11:22:16;85244.49;;;24.43;18.06
68586;BME280;72506;-25.924;28.194;2023-08-31T11:24:42;85234.77;;;25.05;17.07
68586;BME280;72506;-25.924;28.194;2023-08-31T11:27:09;85227.49;;;23.73;18.06
68586;BME280;72506;-25.924;28.194;2023-08-31T11:29:36;85225.68;;;23.99;18.35
68586;BME280;72506;-25.924;28.194;2023-08-31T11:31:59;85226.24;;;23.20;18.71
68586;BME280;72506;-25.924;28.194;2023-08-31T11:34:25;85226.90;;;24.27;18.45
68586;BME280;72506;-25.924;28.194;2023-08-31T11:36:51;85219.73;;;22.33;17.32
68586;BME280;72506;-25.924;28.194;2023-08-31T11:39:18;85218.09;;;23.76;16.56
68586;BME280;72506;-25.924;28.194;2023-08-31T11:41:43;85220.22;;;22.91;18.20
68586;BME280;72506;-25.924;28.194;2023-08-31T11:44:08;85225.18;;;24.20;18.07
68586;BME280;72506;-25.924;28.194;2023-08-31T11:46:33;85217.06;;;24.19;17.65
68586;BME280;72506;-25.924;28.194;2023-08-31T11:49:00;85218.33;;;23.86;17.82
68586;BME280;72506;-25.924;28.194;2023-08-31T11:51:25;85215.55;;;24.27;16.78
68586;BME280;72506;-25.924;28.194;2023-08-31T11:53:51;85213.74;;;23.38;17.16
68586;BME280;72506;-25.924;28.194;2023-08-31T11:56:17;85207.69;;;22.92;17.45
68586;BME280;72506;-25.924;28.194;2023-08-31T11:58:42;85206.96;;;24.50;17.48
68586;BME280;72506;-25.924;28.194;2023-08-31T12:01:08;85208.65;;;25.14;18.08
68586;BME280;72506;-25.924;28.194;2023-08-31T12:03:43;85209.92;;;23.90;19.41
68586;BME280;72506;-25.924;28.194;2023-08-31T12:06:00;85211.23;;;24.78;18.52
68586;BME280;72506;-25.924;28.194;2023-08-31T12:08:26;85205.45;;;23.85;18.08
68586;BME280;72506;-25.924;28.194;2023-08-31T12:10:51;85202.81;;;23.69;18.56
68586;BME280;72506;-25.924;28.194;2023-08-31T12:13:17;85194.95;;;24.44;17.76
68586;BME280;72506;-25.924;28.194;2023-08-31T12:15:43;85193.01;;;24.55;18.01
68586;BME280;72506;-25.924;28.194;2023-08-31T12:18:10;85192.47;;;23.33;17.90
68586;BME280;72506;-25.924;28.194;2023-08-31T12:20:34;85186.41;;;24.06;18.10
68586;BME280;72506;-25.924;28.194;2023-08-31T12:23:00;85184.80;;;24.70;17.55
68586;BME280;72506;-25.924;28.194;2023-08-31T12:25:27;85189.56;;;22.76;18.69
68586;BME280;72506;-25.924;28.194;2023-08-31T12:27:52;85189.34;;;24.24;18.50
68586;BME280;72506;-25.924;28.194;2023-08-31T12:30:19;85184.91;;;24.29;19.01
68586;BME280;72506;-25.924;28.194;2023-08-31T12:32:43;85183.47;;;23.76;18.50